Time;durP1;ratioP1;P1;durP2;ratioP2;P2;SDS_P1;SDS_P2;PMS_P1;PMS_P2;Temp;Humidity;BMP_temperature;BMP_pressure;BME280_temperature;BME280_humidity;BME280_pressure;Samples;Min_cycle;Max_cycle;Signal;HPM_P1;HPM_P2
2022/08/08 00:04:29;;;;;;;1.95;1.23;;;;;;;22.86;36.59;102375.84;16137210;19;130037;-59
2022/08/08 00:09:53;;;;;;;2.72;0.90;;;;;;;22.84;36.74;102371.59;16134418;19;128909;-59
2022/08/08 00:15:20;;;;;;;1.47;1.00;;;;;;;22.84;36.64;102366.84;16150463;19;131531;-59
2022/08/08 00:21:04;;;;;;;2.25;0.98;;;;;;;22.83;36.70;102376.31;16147027;19;129480;-59
2022/08/08 00:26:57;;;;;;;1.80;0.85;;;;;;;22.83;36.85;102375.47;16149649;19;129495;-59
2022/08/08 00:32:24;;;;;;;1.42;1.05;;;;;;;22.83;36.78;102383.84;16145610;19;131369;-60
2022/08/08 00:38:25;;;;;;;2.08;1.10;;;;;;;22.83;36.67;102378.28;16148907;19;130388;-59
2022/08/08 00:44:26;;;;;;;1.90;0.80;;;;;;;22.83;36.88;102381.06;16149494;19;130126;-59
2022/08/08 00:50:22;;;;;;;2.05;0.90;;;;;;;22.80;36.82;102371.22;16148717;19;130064;-59
2022/08/08 00:56:22;;;;;;;1.58;1.30;;;;;;;22.80;36.70;102368.44;16141036;19;130618;-59
2022/08/08 01:02:27;;;;;;;1.90;0.98;;;;;;;22.79;36.88;102360.28;16147333;19;129162;-59
2022/08/08 01:09:16;;;;;;;2.15;1.08;;;;;;;22.76;36.94;102363.59;16146791;19;129581;-59
2022/08/08 01:15:04;;;;;;;2.92;1.15;;;;;;;22.78;36.78;102364.16;16133233;19;130999;-60
2022/08/08 01:20:52;;;;;;;1.80;0.95;;;;;;;22.78;37.08;102355.81;16137884;19;129549;-59
2022/08/08 01:26:16;;;;;;;1.75;0.90;;;;;;;22.76;36.72;102355.22;16138282;19;129002;-59
2022/08/08 01:32:21;;;;;;;1.90;0.90;;;;;;;22.76;37.02;102358.00;16135160;19;129402;-59
2022/08/08 01:38:04;;;;;;;1.25;1.00;;;;;;;22.76;37.32;102360.81;16136000;19;131368;-60
2022/08/08 01:44:02;;;;;;;2.42;1.00;;;;;;;22.74;37.06;102361.88;16135682;19;129915;-60
2022/08/08 01:49:43;;;;;;;2.15;0.77;;;;;;;22.74;37.09;102359.09;16135541;19;129300;-70
2022/08/08 01:55:31;;;;;;;1.83;0.90;;;;;;;22.75;37.24;102359.94;16130880;19;130040;-69
2022/08/08 02:01:25;;;;;;;1.00;0.90;;;;;;;22.73;37.20;102364.91;16133564;19;130090;-68
2022/08/08 02:07:20;;;;;;;1.70;0.88;;;;;;;22.73;37.44;102367.69;16135018;19;129431;-69
2022/08/08 02:12:56;;;;;;;1.50;1.00;;;;;;;22.70;37.06;102366.25;16133300;19;130005;-67
2022/08/08 02:18:31;;;;;;;2.08;0.95;;;;;;;22.71;37.32;102367.06;16129846;19;129794;-59
2022/08/08 02:24:28;;;;;;;2.05;1.00;;;;;;;22.72;37.35;102379.94;16136047;19;130494;-59
2022/08/08 02:29:51;;;;;;;;;;;;;;;22.66;37.54;102370.59;16141117;19;129200;-59
2022/08/08 02:35:55;;;;;;;1.42;1.00;;;;;;;22.69;37.45;102363.69;16139198;19;129663;-58
2022/08/08 02:41:41;;;;;;;1.30;1.00;;;;;;;22.67;37.45;102366.72;16138700;19;132146;-59
2022/08/08 02:47:44;;;;;;;1.52;0.82;;;;;;;22.67;37.08;102365.88;16138991;19;129850;-60
2022/08/08 02:53:49;;;;;;;1.48;0.90;;;;;;;22.67;37.45;102377.88;16135250;19;130598;-59
2022/08/08 02:59:39;;;;;;;1.80;1.10;;;;;;;22.65;37.49;102363.31;16138079;19;130617;-59
2022/08/08 03:05:56;;;;;;;2.05;0.80;;;;;;;22.64;37.77;102367.22;16142032;19;131148;-60
2022/08/08 03:11:40;;;;;;;1.42;0.85;;;;;;;22.64;37.36;102369.13;16138599;19;129432;-60
2022/08/08 03:17:30;;;;;;;2.00;0.80;;;;;;;22.60;37.53;102365.97;16142049;19;129461;-59
2022/08/08 03:23:00;;;;;;;2.17;1.17;;;;;;;22.62;37.42;102362.94;16140081;19;130712;-59
2022/08/08 03:28:48;;;;;;;1.88;0.98;;;;;;;22.62;37.69;102369.38;16139602;19;129580;-59
2022/08/08 03:34:17;;;;;;;;;;;;;;;22.57;37.75;102367.31;16137871;19;130316;-59
2022/08/08 03:39:39;;;;;;;3.85;1.40;;;;;;;22.58;37.43;102369.00;16139754;19;130548;-59
2022/08/08 03:45:22;;;;;;;1.30;1.20;;;;;;;22.58;37.32;102373.72;16143046;19;129172;-58
2022/08/08 03:51:06;;;;;;;3.17;1.20;;;;;;;22.55;37.54;102374.19;16149984;19;132824;-58
2022/08/08 03:56:32;;;;;;;2.00;1.08;;;;;;;22.54;37.59;102383.66;16145282;19;130105;-56
2022/08/08 04:01:53;;;;;;;1.67;1.10;;;;;;;22.53;37.42;102387.53;16145084;19;129238;-56
2022/08/08 04:07:39;;;;;;;2.85;1.40;;;;;;;22.52;37.34;102392.25;16146019;19;130956;-58
2022/08/08 04:13:02;;;;;;;2.47;1.20;;;;;;;22.50;37.68;102408.38;16145909;19;129134;-56
2022/08/08 04:18:38;;;;;;;2.42;1.30;;;;;;;22.50;38.00;102404.75;16152345;19;129497;-58
2022/08/08 04:24:08;;;;;;;1.98;1.40;;;;;;;22.49;37.75;102412.25;16151493;19;128863;-58
2022/08/08 04:29:39;;;;;;;2.28;1.52;;;;;;;22.48;37.84;102402.19;16149306;19;130013;-57
2022/08/08 04:35:21;;;;;;;1.58;1.23;;;;;;;22.47;37.62;102411.63;16145104;19;130214;-58
2022/08/08 04:40:43;;;;;;;0.93;0.82;;;;;;;22.48;37.98;102423.66;16150833;19;131171;-58
2022/08/08 04:46:15;;;;;;;1.45;0.90;;;;;;;22.47;37.52;102421.94;16149270;19;130610;-58
2022/08/08 04:51:39;;;;;;;2.92;1.13;;;;;;;22.44;37.67;102418.53;16145985;19;129287;-58
2022/08/08 04:57:18;;;;;;;1.35;0.90;;;;;;;22.45;38.09;102422.19;16147750;19;129869;-58
2022/08/08 05:02:39;;;;;;;2.95;1.00;;;;;;;22.46;37.61;102425.81;16147912;19;128914;-58
2022/08/08 05:08:03;;;;;;;1.00;0.70;;;;;;;22.43;37.80;102439.16;16146882;19;130598;-59
2022/08/08 05:13:26;;;;;;;2.42;1.08;;;;;;;22.43;37.64;102428.00;16140835;19;132437;-59
2022/08/08 05:18:52;;;;;;;3.35;1.10;;;;;;;22.44;37.91;102434.44;16147810;19;129394;-59
2022/08/08 05:24:15;;;;;;;2.45;1.17;;;;;;;22.46;37.73;102436.97;16149463;19;129693;-59
2022/08/08 05:29:43;;;;;;;4.95;1.35;;;;;;;22.48;37.97;102445.97;16147058;19;129497;-59
2022/08/08 05:35:06;;;;;;;2.13;1.00;;;;;;;22.49;37.91;102450.47;16143997;19;130176;-59
2022/08/08 05:40:35;;;;;;;12.07;5.22;;;;;;;22.44;38.30;102446.44;16146773;19;130579;-57
2022/08/08 05:46:03;;;;;;;13.75;6.30;;;;;;;22.30;38.55;102444.06;16145399;19;129800;-58
2022/08/08 05:51:29;;;;;;;10.32;6.50;;;;;;;22.05;38.89;102448.59;16141378;19;130289;-58
2022/08/08 05:57:16;;;;;;;12.45;6.85;;;;;;;21.85;39.23;102451.63;16142665;19;128956;-58
2022/08/08 06:03:12;;;;;;;12.27;6.72;;;;;;;21.80;39.14;102457.06;16145920;19;129492;-60
2022/08/08 06:08:53;;;;;;;23.92;8.50;;;;;;;21.54;40.23;102463.75;16139805;19;128775;-58
2022/08/08 06:14:21;;;;;;;11.97;6.20;;;;;;;21.40;40.30;102466.63;16141563;19;129052;-58
2022/08/08 06:19:45;;;;;;;14.95;6.60;;;;;;;21.38;40.22;102460.44;16143303;19;129376;-58
2022/08/08 06:25:08;;;;;;;10.77;5.55;;;;;;;21.41;40.20;102465.56;16144407;19;130107;-59
2022/08/08 06:30:33;;;;;;;7.10;4.38;;;;;;;21.51;40.21;102468.69;16140099;19;128886;-59
2022/08/08 06:35:57;;;;;;;7.83;3.97;;;;;;;21.65;40.03;102474.97;16136186;19;129457;-58
2022/08/08 06:41:40;;;;;;;8.45;3.67;;;;;;;21.77;39.83;102482.56;16141853;19;129523;-58
2022/08/08 06:47:09;;;;;;;5.82;3.20;;;;;;;21.83;40.00;102485.28;16139505;19;129391;-56
2022/08/08 06:52:31;;;;;;;3.53;2.22;;;;;;;21.88;40.29;102486.53;16135222;19;129238;-55
2022/08/08 06:57:53;;;;;;;5.13;2.45;;;;;;;21.96;40.08;102484.31;16137373;19;129332;-55
2022/08/08 07:03:36;;;;;;;2.30;2.10;;;;;;;22.01;40.02;102491.97;16140162;19;129612;-54
2022/08/08 07:09:19;;;;;;;3.15;1.95;;;;;;;22.05;39.79;102498.78;16140367;19;129700;-56
2022/08/08 07:14:51;;;;;;;3.30;1.60;;;;;;;22.08;40.08;102498.31;16133416;19;128973;-56
2022/08/08 07:20:23;;;;;;;4.05;2.00;;;;;;;22.11;40.17;102503.44;16137671;19;129089;-56
2022/08/08 07:25:51;;;;;;;3.23;1.63;;;;;;;22.12;39.97;102502.34;16136993;19;129548;-56
2022/08/08 07:31:17;;;;;;;4.63;1.45;;;;;;;22.14;40.02;102504.91;16138248;19;129375;-55
2022/08/08 07:36:42;;;;;;;2.95;1.20;;;;;;;22.16;39.97;102510.22;16138409;19;130690;-55
2022/08/08 07:42:14;;;;;;;2.70;1.40;;;;;;;22.17;40.17;102511.94;16138460;19;129107;-54
2022/08/08 07:47:39;;;;;;;2.58;1.15;;;;;;;22.20;40.61;102522.63;16138139;19;129470;-55
2022/08/08 07:53:18;;;;;;;3.00;1.35;;;;;;;22.22;39.91;102528.84;16134956;19;129240;-54
2022/08/08 07:59:01;;;;;;;2.33;1.55;;;;;;;22.20;40.01;102529.06;16135710;19;129915;-55
2022/08/08 08:04:32;;;;;;;3.20;1.02;;;;;;;22.23;40.16;102536.97;16136441;19;129365;-55
2022/08/08 08:10:03;;;;;;;2.17;1.10;;;;;;;22.23;40.32;102536.97;16135449;19;129497;-56
2022/08/08 08:15:27;;;;;;;1.95;0.90;;;;;;;22.25;40.40;102545.13;16132973;19;129478;-54
2022/08/08 08:20:53;;;;;;;1.75;0.90;;;;;;;22.25;40.49;102537.59;16134089;19;129559;-54
2022/08/08 08:26:17;;;;;;;2.35;0.90;;;;;;;22.28;39.94;102541.84;16135392;19;129573;-55
2022/08/08 08:31:49;;;;;;;0.63;0.60;;;;;;;22.28;40.19;102539.94;16134674;19;129774;-56
2022/08/08 08:37:18;;;;;;;4.38;1.30;;;;;;;22.30;40.14;102550.84;16150317;19;129352;-56
2022/08/08 08:42:41;;;;;;;3.17;0.90;;;;;;;22.31;40.14;102551.72;16148843;19;129357;-56
2022/08/08 08:48:06;;;;;;;3.37;1.00;;;;;;;22.31;40.31;102557.28;16148700;19;131297;-57
2022/08/08 08:53:34;;;;;;;1.17;0.90;;;;;;;22.32;40.42;102553.41;16145771;19;129721;-55
2022/08/08 08:59:17;;;;;;;4.03;0.90;;;;;;;22.31;40.07;102554.50;16148902;19;129655;-56
2022/08/08 09:05:03;;;;;;;2.63;1.15;;;;;;;22.32;40.09;102543.09;16147893;19;130478;-55
2022/08/08 09:10:28;;;;;;;1.63;0.82;;;;;;;22.33;40.12;102549.56;16148432;19;129492;-55
2022/08/08 09:15:51;;;;;;;1.05;0.70;;;;;;;22.32;40.17;102548.69;16141291;19;129501;-56
2022/08/08 09:21:26;;;;;;;1.63;0.77;;;;;;;22.34;40.44;102549.31;16146922;19;129323;-55
2022/08/08 09:27:07;;;;;;;0.95;0.75;;;;;;;22.34;40.42;102540.94;16147913;19;129844;-54
2022/08/08 09:32:47;;;;;;;1.70;0.40;;;;;;;22.35;40.80;102541.78;16146782;19;129037;-56
2022/08/08 09:38:48;;;;;;;1.85;0.77;;;;;;;22.37;40.35;102551.63;16147258;19;129944;-55
2022/08/08 09:44:47;;;;;;;1.17;0.60;;;;;;;22.38;40.53;102542.19;16142963;19;128804;-53
2022/08/08 09:50:17;;;;;;;2.65;0.70;;;;;;;22.38;40.10;102535.75;16145194;19;129374;-55
2022/08/08 09:55:43;;;;;;;2.20;0.80;;;;;;;22.37;40.49;102540.47;16139810;19;130103;-56
2022/08/08 10:01:26;;;;;;;2.78;0.75;;;;;;;22.38;40.29;102532.94;16142464;19;128936;-56
2022/08/08 10:07:11;;;;;;;2.40;0.73;;;;;;;22.38;40.16;102533.81;16144519;19;129961;-54
2022/08/08 10:12:38;;;;;;;2.35;0.70;;;;;;;22.39;40.08;102538.31;16139597;19;129233;-55
2022/08/08 10:18:34;;;;;;;1.80;0.80;;;;;;;22.40;40.03;102530.78;16143226;19;130597;-58
2022/08/08 10:24:02;;;;;;;2.60;0.70;;;;;;;22.37;39.87;102534.03;16143227;19;128964;-57
2022/08/08 10:29:38;;;;;;;2.05;0.57;;;;;;;22.39;40.06;102527.16;16143153;19;129672;-58
2022/08/08 10:35:23;;;;;;;2.78;0.85;;;;;;;22.39;39.72;102532.75;16138158;19;130908;-57
2022/08/08 10:41:06;;;;;;;1.65;0.50;;;;;;;22.40;39.57;102517.69;16139221;19;129511;-56
2022/08/08 10:46:30;;;;;;;1.67;0.60;;;;;;;22.40;39.60;102517.69;16138127;19;130225;-58
2022/08/08 10:51:52;;;;;;;1.55;0.68;;;;;;;22.41;39.44;102507.41;16137636;19;128971;-58
2022/08/08 10:57:15;;;;;;;3.63;0.60;;;;;;;22.42;39.67;102507.16;16138454;19;129326;-57
2022/08/08 11:03:09;;;;;;;1.38;0.60;;;;;;;22.42;39.29;102509.94;16138103;19;128956;-58
2022/08/08 11:08:37;;;;;;;2.50;0.82;;;;;;;22.43;39.39;102500.50;16138029;19;129278;-57
2022/08/08 11:14:05;;;;;;;1.95;0.70;;;;;;;22.44;39.55;102510.56;16134290;19;129621;-58
2022/08/08 11:19:28;;;;;;;2.75;0.57;;;;;;;22.47;39.35;102500.03;16138385;19;130016;-57
2022/08/08 11:25:10;;;;;;;3.97;0.60;;;;;;;22.48;39.44;102510.09;16139953;19;129500;-58
2022/08/08 11:30:35;;;;;;;1.58;0.57;;;;;;;22.44;39.55;102505.00;16136737;19;131222;-58
2022/08/08 11:36:13;;;;;;;0.95;0.50;;;;;;;22.46;39.41;102503.91;16134097;19;129130;-58
2022/08/08 11:41:36;;;;;;;1.38;0.52;;;;;;;22.48;39.42;102496.16;16139488;19;130067;-58
2022/08/08 11:46:58;;;;;;;3.47;0.70;;;;;;;22.51;39.22;102501.28;16139127;19;129427;-58
2022/08/08 11:52:22;;;;;;;2.92;0.80;;;;;;;22.53;39.03;102488.78;16134345;19;129100;-58
2022/08/08 11:58:05;;;;;;;3.50;0.70;;;;;;;22.55;38.59;102474.59;16139751;19;129634;-58
2022/08/08 12:03:46;;;;;;;1.85;0.60;;;;;;;22.55;38.95;102474.59;16139257;19;129049;-58
2022/08/08 12:09:09;;;;;;;2.10;0.60;;;;;;;22.58;38.76;102482.50;16148173;19;129325;-58
2022/08/08 12:14:39;;;;;;;4.38;0.50;;;;;;;22.57;38.57;102469.63;16148086;19;130693;-55
2022/08/08 12:20:15;;;;;;;1.80;0.52;;;;;;;22.55;38.77;102469.03;16151554;19;129909;-57
2022/08/08 12:25:38;;;;;;;1.98;0.50;;;;;;;22.58;39.04;102469.44;16167835;19;129411;-59
2022/08/08 12:31:15;;;;;;;1.38;0.50;;;;;;;22.62;38.82;102469.78;16181027;19;129310;-54
2022/08/08 12:36:42;;;;;;;1.80;0.40;;;;;;;22.65;39.27;102466.50;16166030;19;128698;-56
2022/08/08 12:42:09;;;;;;;0.57;0.30;;;;;;;22.69;38.89;102464.97;16173814;19;129445;-56
2022/08/08 12:47:41;;;;;;;1.13;0.52;;;;;;;22.70;39.02;102461.09;16171080;19;129327;-57
2022/08/08 12:53:31;;;;;;;1.45;0.40;;;;;;;22.73;38.87;102446.66;16181167;19;129416;-57
2022/08/08 12:59:00;;;;;;;3.13;0.60;;;;;;;22.76;38.88;102452.88;16197623;19;129078;-54
2022/08/08 13:04:25;;;;;;;1.48;0.43;;;;;;;22.78;38.87;102450.66;16154968;19;129457;-54
2022/08/08 13:09:52;;;;;;;4.28;0.40;;;;;;;22.78;38.77;102445.09;16151247;19;129475;-59
2022/08/08 13:15:28;;;;;;;;;;;;;;;22.76;38.88;102452.88;16148375;19;129496;-55
2022/08/08 13:20:50;;;;;;;1.85;0.50;;;;;;;22.80;38.49;102454.94;16148259;19;129241;-56
2022/08/08 13:26:12;;;;;;;0.77;0.40;;;;;;;22.79;38.81;102439.28;16147311;19;129055;-59
2022/08/08 13:31:45;;;;;;;2.08;0.60;;;;;;;22.83;38.63;102436.88;16148272;19;128930;-59
2022/08/08 13:37:12;;;;;;;0.38;0.35;;;;;;;22.84;38.78;102427.41;16141385;19;129445;-58
2022/08/08 13:42:48;;;;;;;2.15;0.40;;;;;;;22.83;38.45;102439.66;16147323;19;129914;-56
2022/08/08 13:48:13;;;;;;;0.55;0.30;;;;;;;22.85;38.50;102441.09;16143364;19;129556;-54
2022/08/08 13:53:39;;;;;;;0.93;0.40;;;;;;;22.86;38.11;102436.41;16142765;19;129414;-59
2022/08/08 13:59:14;;;;;;;1.42;0.50;;;;;;;22.87;38.55;102438.09;16138345;19;129858;-55
2022/08/08 14:04:35;;;;;;;1.50;0.30;;;;;;;22.89;38.26;102430.34;16147272;19;130085;-57
2022/08/08 14:10:16;;;;;;;0.80;0.40;;;;;;;22.92;38.13;102434.63;16147569;19;129414;-56
2022/08/08 14:16:04;;;;;;;0.90;0.40;;;;;;;22.92;38.19;102441.03;16141546;19;129547;-57
2022/08/08 14:21:39;;;;;;;1.55;0.50;;;;;;;22.94;37.96;102432.44;16145824;19;129767;-56
2022/08/08 14:27:25;;;;;;;1.80;0.65;;;;;;;22.95;38.35;102423.81;16146665;19;129304;-57
2022/08/08 14:32:51;;;;;;;3.42;0.50;;;;;;;22.99;38.12;102430.63;16144511;19;130066;-59
2022/08/08 14:38:13;;;;;;;3.33;0.60;;;;;;;23.01;37.70;102427.59;16147216;19;129439;-56
2022/08/08 14:43:57;;;;;;;5.82;0.60;;;;;;;23.01;37.32;102434.03;16146264;19;129364;-56
2022/08/08 14:49:33;;;;;;;3.30;0.75;;;;;;;23.05;37.59;102429.66;16144069;19;129381;-57
2022/08/08 14:55:16;;;;;;;3.10;0.80;;;;;;;23.11;37.55;102435.38;16138468;19;129920;-57
2022/08/08 15:00:56;;;;;;;2.17;0.50;;;;;;;23.13;37.66;102422.03;16141498;19;129176;-59
2022/08/08 15:06:17;;;;;;;1.83;0.70;;;;;;;23.10;37.36;102426.13;16144200;19;129665;-60
2022/08/08 15:11:43;;;;;;;;;;;;;;;23.06;37.51;102416.56;16143684;19;130117;-58
2022/08/08 15:17:14;;;;;;;2.45;0.80;;;;;;;23.10;37.36;102419.72;16138609;19;129735;-59
2022/08/08 15:22:36;;;;;;;4.68;0.63;;;;;;;23.11;37.43;102424.22;16141989;19;129806;-59
2022/08/08 15:27:59;;;;;;;3.17;0.60;;;;;;;23.11;36.93;102410.25;16140292;19;129294;-58
2022/08/08 15:33:41;;;;;;;4.45;0.93;;;;;;;23.10;37.35;102419.72;16138862;19;129441;-59
2022/08/08 15:39:20;;;;;;;8.57;0.80;;;;;;;23.11;37.09;102410.25;16137724;19;129451;-57
2022/08/08 15:44:42;;;;;;;2.80;0.50;;;;;;;23.13;37.17;102410.88;16136557;19;129657;-59
2022/08/08 15:50:05;;;;;;;7.32;0.90;;;;;;;23.13;37.35;102405.28;16138080;19;128956;-58
2022/08/08 15:55:37;;;;;;;16.38;1.30;;;;;;;23.14;37.21;102402.25;16132938;19;129528;-57
2022/08/08 16:01:00;;;;;;;7.95;1.02;;;;;;;23.15;36.93;102400.28;16135578;19;130449;-57
2022/08/08 16:06:22;;;;;;;6.60;0.90;;;;;;;23.17;37.23;102392.53;16137746;19;129398;-59
2022/08/08 16:11:50;;;;;;;3.75;0.95;;;;;;;23.18;36.89;102395.09;16138148;19;129468;-58
2022/08/08 16:17:31;;;;;;;7.43;0.77;;;;;;;23.20;37.48;102392.06;16131869;19;130008;-59
2022/08/08 16:23:13;;;;;;;2.30;1.00;;;;;;;23.18;37.12;102399.81;16135307;19;129422;-59
2022/08/08 16:28:36;;;;;;;4.28;0.70;;;;;;;23.17;36.90;102396.19;16135703;19;129465;-59
2022/08/08 16:34:02;;;;;;;3.15;0.80;;;;;;;23.18;36.49;102397.03;16132594;19;130928;-59
2022/08/08 16:39:24;;;;;;;2.58;0.88;;;;;;;23.16;36.78;102388.03;16134520;19;129046;-59
2022/08/08 16:45:06;;;;;;;9.45;0.85;;;;;;;23.15;36.70;102387.19;16133405;19;129919;-59
2022/08/08 16:50:47;;;;;;;1.85;0.70;;;;;;;23.16;36.50;102396.41;16132703;19;129893;-58
2022/08/08 16:56:12;;;;;;;2.08;0.63;;;;;;;23.15;36.66;102394.72;16143158;19;128900;-58
2022/08/08 17:01:35;;;;;;;6.75;1.10;;;;;;;23.17;36.48;102392.53;16149696;19;130110;-56
2022/08/08 17:07:00;;;;;;;2.70;0.60;;;;;;;23.18;36.52;102388.66;16149736;19;129411;-57
2022/08/08 17:12:23;;;;;;;1.10;0.57;;;;;;;23.20;36.48;102392.06;16138614;19;129547;-58
2022/08/08 17:17:49;;;;;;;1.88;0.65;;;;;;;23.17;36.64;102386.94;16142454;19;129566;-61
2022/08/08 17:23:25;;;;;;;3.00;0.87;;;;;;;23.17;36.29;102386.94;16147091;19;129004;-61
2022/08/08 17:29:07;;;;;;;1.52;0.40;;;;;;;23.15;36.56;102391.91;16145583;19;129113;-57
2022/08/08 17:34:36;;;;;;;11.73;0.60;;;;;;;23.16;36.72;102396.41;16139363;19;129468;-57
2022/08/08 17:40:18;;;;;;;1.85;0.50;;;;;;;23.25;36.69;102399.69;16142586;19;129797;-57
2022/08/08 17:45:42;;;;;;;13.70;0.70;;;;;;;23.30;36.69;102419.38;16144958;19;129150;-56
2022/08/08 17:51:06;;;;;;;5.13;0.77;;;;;;;23.32;37.03;102418.03;16140530;19;128874;-57
2022/08/08 17:56:31;;;;;;;8.73;0.80;;;;;;;23.35;36.73;102422.28;16141975;19;129145;-55
2022/08/08 18:02:00;;;;;;;4.63;0.55;;;;;;;23.37;36.66;102427.63;16143870;19;129550;-57
2022/08/08 18:07:26;;;;;;;14.20;1.23;;;;;;;23.34;37.18;102427.03;16142649;19;130789;-54
2022/08/08 18:13:07;;;;;;;6.90;0.80;;;;;;;23.31;37.09;102429.47;16140812;19;130046;-57
2022/08/08 18:18:29;;;;;;;6.13;0.80;;;;;;;23.30;37.47;102434.19;16136634;19;129058;-58
2022/08/08 18:23:54;;;;;;;7.23;0.77;;;;;;;23.29;36.84;102435.25;16141744;19;128850;-55
2022/08/08 18:29:16;;;;;;;6.07;0.75;;;;;;;23.29;37.14;102432.47;16140807;19;129489;-56
2022/08/08 18:34:45;;;;;;;5.35;0.47;;;;;;;23.26;37.31;102430.19;16142791;19;130361;-54
2022/08/08 18:40:11;;;;;;;5.60;0.60;;;;;;;23.25;37.72;102439.66;16142090;19;128923;-56
2022/08/08 18:45:33;;;;;;;6.72;0.70;;;;;;;23.24;37.33;102443.53;16136670;19;129416;-57
2022/08/08 18:51:15;;;;;;;6.43;0.57;;;;;;;23.23;37.48;102447.41;16138651;19;129324;-56
2022/08/08 18:56:56;;;;;;;4.75;0.70;;;;;;;23.21;37.34;102457.97;16137185;19;129164;-53
2022/08/08 19:02:18;;;;;;;7.38;0.65;;;;;;;23.20;37.20;102467.44;16138610;19;129486;-57
2022/08/08 19:07:50;;;;;;;10.75;0.70;;;;;;;23.19;37.53;102476.91;16127971;19;130561;-55
2022/08/08 19:13:15;;;;;;;3.90;0.50;;;;;;;23.16;37.47;102488.53;16118726;19;132177;-51
2022/08/08 19:18:44;;;;;;;7.43;0.52;;;;;;;23.14;37.59;102502.75;16113285;19;130222;-55
2022/08/08 19:24:18;;;;;;;4.45;0.63;;;;;;;23.15;37.66;102500.78;16123155;19;130137;-52
2022/08/08 19:30:00;;;;;;;8.32;0.65;;;;;;;23.15;37.59;102503.59;16123371;19;129369;-54
2022/08/08 19:35:22;;;;;;;4.55;0.55;;;;;;;23.14;37.82;102511.13;16121055;19;130338;-56
2022/08/08 19:41:04;;;;;;;4.78;0.50;;;;;;;23.17;37.86;102515.38;16130723;19;129462;-50
2022/08/08 19:46:27;;;;;;;1.95;0.30;;;;;;;23.14;37.82;102515.88;16131852;19;130424;-55
2022/08/08 19:51:54;;;;;;;1.40;0.40;;;;;;;23.11;37.49;102528.34;16132266;19;129052;-54
2022/08/08 19:57:15;;;;;;;3.97;0.45;;;;;;;23.10;37.94;102534.19;16129560;19;130877;-54
2022/08/08 20:02:38;;;;;;;1.70;0.45;;;;;;;23.11;37.81;102533.09;16135886;19;129390;-57
2022/08/08 20:08:00;;;;;;;4.80;0.60;;;;;;;23.12;37.69;102543.16;16132870;19;128999;-58
2022/08/08 20:13:42;;;;;;;2.70;0.43;;;;;;;23.10;37.87;102550.91;16133400;19;129334;-57
2022/08/08 20:19:24;;;;;;;1.65;0.38;;;;;;;23.05;37.85;102552.47;16128869;19;130144;-57
2022/08/08 20:24:54;;;;;;;1.15;0.20;;;;;;;23.05;37.77;102555.28;16131269;19;130254;-55
2022/08/08 20:30:15;;;;;;;4.95;0.43;;;;;;;23.02;37.99;102561.31;16142897;19;129928;-54
2022/08/08 20:35:58;;;;;;;1.02;0.40;;;;;;;23.00;37.93;102559.84;16147722;19;130491;-55
2022/08/08 20:41:29;;;;;;;1.65;0.40;;;;;;;22.98;37.79;102557.31;16150246;19;130084;-57
2022/08/08 20:46:54;;;;;;;2.67;0.50;;;;;;;22.94;37.63;102550.50;16145499;19;128942;-55
2022/08/08 20:52:16;;;;;;;2.28;0.40;;;;;;;22.93;38.05;102559.13;16145763;19;129442;-56
2022/08/08 20:57:39;;;;;;;1.20;0.55;;;;;;;22.91;38.00;102562.13;16142567;19;130796;-56
2022/08/08 21:03:08;;;;;;;0.40;0.30;;;;;;;22.93;37.83;102559.94;16144363;19;130057;-56
2022/08/08 21:08:37;;;;;;;1.83;0.60;;;;;;;22.88;37.97;102557.84;16145470;19;129413;-57
2022/08/08 21:14:09;;;;;;;2.05;0.40;;;;;;;22.89;37.70;102565.13;16144555;19;129376;-57
2022/08/08 21:19:35;;;;;;;1.25;0.65;;;;;;;22.89;37.81;102553.13;16142694;19;130733;-55
2022/08/08 21:25:06;;;;;;;0.77;0.30;;;;;;;22.89;37.70;102550.34;16147641;19;129093;-59
2022/08/08 21:30:34;;;;;;;1.42;0.52;;;;;;;22.86;37.54;102554.44;16144499;19;129169;-57
2022/08/08 21:35:56;;;;;;;1.02;0.40;;;;;;;22.86;37.72;102560.00;16141957;19;129513;-57
2022/08/08 21:41:38;;;;;;;1.13;0.40;;;;;;;22.84;37.47;102567.75;16144379;19;129330;-57
2022/08/08 21:47:14;;;;;;;;;;;;;;;22.80;37.54;102565.69;16142516;19;129904;-56
2022/08/08 21:52:56;;;;;;;3.03;0.30;;;;;;;22.80;37.62;102565.69;16141188;19;129887;-56
2022/08/08 21:58:38;;;;;;;1.52;0.40;;;;;;;22.79;38.03;102569.56;16138650;19;130191;-57
2022/08/08 22:04:05;;;;;;;1.00;0.40;;;;;;;22.80;37.90;102571.25;16141496;19;130503;-56
2022/08/08 22:09:26;;;;;;;0.95;0.40;;;;;;;22.78;38.18;102571.50;16135205;19;131096;-55
2022/08/08 22:15:06;;;;;;;1.60;0.30;;;;;;;22.79;37.98;102576.00;16124545;19;130502;-57
2022/08/08 22:20:27;;;;;;;2.13;0.43;;;;;;;22.77;37.77;102575.38;16123233;19;129500;-57
2022/08/08 22:25:49;;;;;;;0.68;0.20;;;;;;;22.77;37.84;102571.75;16132955;19;129281;-57
2022/08/08 22:31:31;;;;;;;0.50;0.30;;;;;;;22.78;37.88;102579.00;16140370;19;129657;-57
2022/08/08 22:36:55;;;;;;;1.30;0.40;;;;;;;22.77;37.83;102589.34;16138770;19;129031;-57
2022/08/08 22:42:17;;;;;;;0.80;0.30;;;;;;;22.76;37.88;102596.00;16140351;19;129834;-54
2022/08/08 22:47:47;;;;;;;1.55;0.40;;;;;;;22.76;38.02;102590.41;16140332;19;129485;-55
2022/08/08 22:53:13;;;;;;;1.55;0.35;;;;;;;22.74;37.98;102590.66;16135025;19;129438;-57
2022/08/08 22:58:54;;;;;;;2.28;0.30;;;;;;;22.74;38.06;102593.44;16135296;19;129362;-55
2022/08/08 23:04:17;;;;;;;0.75;0.30;;;;;;;22.73;38.12;102588.09;16137072;19;129458;-57
2022/08/08 23:09:53;;;;;;;0.33;0.20;;;;;;;22.72;38.15;102592.81;16139078;19;129150;-55
2022/08/08 23:15:20;;;;;;;0.80;0.20;;;;;;;22.73;38.22;102588.97;16136260;19;130663;-58
2022/08/08 23:21:04;;;;;;;3.83;0.30;;;;;;;22.72;38.42;102592.81;16140723;19;129340;-58
2022/08/08 23:26:28;;;;;;;0.60;0.30;;;;;;;22.70;38.40;102600.56;16137240;19;129831;-57
2022/08/08 23:31:50;;;;;;;0.88;0.20;;;;;;;22.69;37.97;102604.44;16136757;19;129272;-57
2022/08/08 23:37:12;;;;;;;0.30;0.20;;;;;;;22.69;38.07;102604.44;16134006;19;130133;-57
2022/08/08 23:42:34;;;;;;;0.57;0.30;;;;;;;22.70;38.27;102606.16;16130198;19;129147;-57
2022/08/08 23:47:56;;;;;;;0.52;0.32;;;;;;;22.70;38.50;102595.00;16138146;19;131230;-56
2022/08/08 23:53:40;;;;;;;0.82;0.40;;;;;;;22.69;38.23;102598.03;16135310;19;130677;-57
2022/08/08 23:59:22;;;;;;;2.22;0.40;;;;;;;22.68;38.25;102590.75;16131852;19;129831;-56
